Time;durP1;ratioP1;P1;durP2;ratioP2;P2;SDS_P1;SDS_P2;PMS_P1;PMS_P2;Temp;Humidity;BMP_temperature;BMP_pressure;BME280_temperature;BME280_humidity;BME280_pressure;Samples;Min_cycle;Max_cycle;Signal;HPM_P1;HPM_P2
2021/12/10 00:02:31;;;;;;;1.35;1.00;;;20.70;54.20;;;;;;5042231;28;20057;-45
2021/12/10 00:04:57;;;;;;;1.17;1.08;;;20.70;54.30;;;;;;5042410;28;20061;-43
2021/12/10 00:07:24;;;;;;;1.20;0.90;;;20.80;54.40;;;;;;5111109;28;20029;-43
2021/12/10 00:09:51;;;;;;;;;;;20.90;54.40;;;;;;5055768;28;20036;-43
2021/12/10 00:12:26;;;;;;;0.70;0.70;;;20.90;54.40;;;;;;5063451;27;19923;-43
2021/12/10 00:14:53;;;;;;;1.00;0.98;;;20.90;54.30;;;;;;5057743;27;20449;-47
2021/12/10 00:17:21;;;;;;;1.48;1.05;;;20.90;54.30;;;;;;5062209;28;20025;-46
2021/12/10 00:19:51;;;;;;;1.10;1.00;;;20.80;54.30;;;;;;5057252;28;20037;-43
2021/12/10 00:22:21;;;;;;;1.77;1.10;;;20.70;54.30;;;;;;5042093;28;20054;-43
2021/12/10 00:24:48;;;;;;;1.40;1.30;;;20.70;54.30;;;;;;5041748;28;20055;-43
2021/12/10 00:27:15;;;;;;;1.23;1.13;;;20.80;54.40;;;;;;5042092;28;20042;-44
2021/12/10 00:29:48;;;;;;;1.00;0.90;;;20.80;54.40;;;;;;5051851;27;20053;-48
2021/12/10 00:32:29;;;;;;;1.30;1.10;;;20.90;54.40;;;;;;5062745;28;20049;-44
2021/12/10 00:34:55;;;;;;;1.13;1.00;;;20.90;54.40;;;;;;5041694;28;20116;-43
2021/12/10 00:37:22;;;;;;;1.40;1.20;;;20.90;54.30;;;;;;5041812;28;20051;-43
2021/12/10 00:39:58;;;;;;;1.75;1.38;;;20.80;54.30;;;;;;5054345;28;20059;-46
2021/12/10 00:42:33;;;;;;;1.40;1.10;;;20.80;54.40;;;;;;5061597;28;20064;-45
2021/12/10 00:44:59;;;;;;;1.45;0.90;;;20.70;54.40;;;;;;5041379;28;20034;-43
2021/12/10 00:47:26;;;;;;;1.40;1.20;;;20.70;54.50;;;;;;5049860;28;20032;-43
2021/12/10 00:49:52;;;;;;;1.83;1.13;;;20.80;54.40;;;;;;5055643;27;20831;-43
2021/12/10 00:52:18;;;;;;;1.50;1.30;;;20.90;54.50;;;;;;5041389;28;20312;-44
2021/12/10 00:54:45;;;;;;;1.02;1.00;;;20.90;54.40;;;;;;5041358;28;20051;-43
2021/12/10 00:57:11;;;;;;;1.30;1.20;;;20.90;54.30;;;;;;5041965;28;20034;-43
2021/12/10 00:59:37;;;;;;;1.30;1.20;;;20.80;54.30;;;;;;5041183;28;20025;-43
2021/12/10 01:02:05;;;;;;;1.80;1.20;;;20.70;54.40;;;;;;5041518;28;20060;-44
2021/12/10 01:04:34;;;;;;;1.38;1.23;;;20.70;54.30;;;;;;5041358;28;20036;-45
2021/12/10 01:07:02;;;;;;;1.45;1.35;;;20.70;54.50;;;;;;5041409;28;20032;-45
2021/12/10 01:09:31;;;;;;;1.50;1.20;;;20.80;54.40;;;;;;5050189;28;20028;-44
2021/12/10 01:12:06;;;;;;;1.38;1.27;;;20.90;54.40;;;;;;5061297;28;20054;-43
2021/12/10 01:14:53;;;;;;;1.40;1.30;;;20.90;54.40;;;;;;5060769;28;20445;-46
2021/12/10 01:25:41;;;;;;;1.27;1.17;;;20.80;54.40;;;;;;5098455;28;20032;-43
2021/12/10 01:28:08;;;;;;;1.50;1.25;;;20.80;54.40;;;;;;5041022;28;20034;-45
2021/12/10 01:30:36;;;;;;;1.80;1.50;;;20.90;54.40;;;;;;5058271;28;20039;-44
2021/12/10 01:33:08;;;;;;;1.48;1.38;;;20.90;54.40;;;;;;5129925;27;20045;-44
2021/12/10 01:35:40;;;;;;;1.33;1.23;;;20.90;54.30;;;;;;5060706;28;20723;-45
2021/12/10 01:38:07;;;;;;;1.20;1.10;;;20.80;54.30;;;;;;5060714;28;20025;-45
2021/12/10 01:40:35;;;;;;;1.33;1.20;;;20.80;54.30;;;;;;5060818;28;20040;-47
2021/12/10 01:43:06;;;;;;;1.40;1.30;;;20.70;54.40;;;;;;5060974;27;20051;-44
2021/12/10 01:45:45;;;;;;;1.50;1.40;;;20.80;54.50;;;;;;5060445;27;20058;-44
2021/12/10 01:48:15;;;;;;;1.15;1.05;;;20.90;54.50;;;;;;5060895;28;20460;-44
2021/12/10 01:50:41;;;;;;;1.88;1.20;;;20.90;54.40;;;;;;5047281;28;20122;-44
2021/12/10 01:53:09;;;;;;;1.70;1.45;;;20.90;54.40;;;;;;5040661;28;20045;-44
2021/12/10 01:55:38;;;;;;;1.58;1.33;;;20.90;54.40;;;;;;5040356;28;20030;-46
2021/12/10 01:58:05;;;;;;;1.50;1.40;;;20.80;54.40;;;;;;5040708;28;20028;-44
2021/12/10 02:00:33;;;;;;;1.58;1.45;;;20.80;54.40;;;;;;5104801;27;20050;-43
2021/12/10 02:02:59;;;;;;;1.50;1.40;;;20.70;54.40;;;;;;5165495;27;20038;-43
2021/12/10 02:05:25;;;;;;;1.50;1.40;;;20.80;54.50;;;;;;5165056;27;20034;-44
2021/12/10 02:07:53;;;;;;;1.70;1.52;;;20.90;54.50;;;;;;5165623;27;20092;-45
2021/12/10 02:10:20;;;;;;;1.80;1.60;;;20.90;54.50;;;;;;5164722;27;20510;-44
2021/12/10 02:12:46;;;;;;;1.48;1.38;;;20.90;54.50;;;;;;5165067;27;20031;-46
2021/12/10 02:15:13;;;;;;;1.55;1.45;;;20.80;54.30;;;;;;5163270;27;20019;-44
2021/12/10 02:17:44;;;;;;;1.45;1.35;;;20.80;54.40;;;;;;5161613;27;20026;-44
2021/12/10 02:20:13;;;;;;;1.27;1.17;;;20.70;54.40;;;;;;5169525;27;20026;-46
2021/12/10 02:22:39;;;;;;;1.40;1.30;;;20.80;54.50;;;;;;5164788;27;20023;-45
2021/12/10 02:25:06;;;;;;;1.58;1.48;;;20.90;54.60;;;;;;5159139;27;20082;-44
2021/12/10 02:27:32;;;;;;;1.35;1.25;;;20.90;54.60;;;;;;5156215;27;20026;-46
2021/12/10 02:29:58;;;;;;;1.52;1.42;;;20.90;54.60;;;;;;5164820;27;20107;-44
2021/12/10 02:32:26;;;;;;;1.58;1.48;;;20.90;54.50;;;;;;5164585;27;20560;-45
2021/12/10 02:34:53;;;;;;;1.70;1.58;;;20.90;55.10;;;;;;5146006;27;20045;-44
2021/12/10 02:37:20;;;;;;;2.30;1.50;;;20.80;54.50;;;;;;5167054;27;20075;-44
2021/12/10 02:39:46;;;;;;;1.60;1.50;;;20.80;54.60;;;;;;5164621;27;20092;-44
2021/12/10 02:42:12;;;;;;;1.65;1.40;;;20.80;54.60;;;;;;5164214;27;20399;-44
2021/12/10 02:44:38;;;;;;;1.60;1.50;;;20.90;54.70;;;;;;5164377;27;20038;-45
2021/12/10 02:47:04;;;;;;;1.50;1.40;;;20.90;54.70;;;;;;5163247;27;20558;-44
2021/12/10 02:49:31;;;;;;;1.52;1.42;;;20.90;54.60;;;;;;5160891;27;20027;-43
2021/12/10 02:51:58;;;;;;;1.63;1.40;;;20.90;54.60;;;;;;5159582;27;20113;-43
2021/12/10 02:54:33;;;;;;;1.48;1.33;;;20.80;54.60;;;;;;5164245;27;20050;-45
2021/12/10 02:57:11;;;;;;;1.50;1.40;;;20.80;54.60;;;;;;5163742;27;20027;-44
2021/12/10 02:59:37;;;;;;;2.42;1.80;;;20.80;54.70;;;;;;5163860;27;20046;-43
2021/12/10 03:02:05;;;;;;;2.28;1.55;;;20.90;54.80;;;;;;5164279;27;20459;-46
2021/12/10 03:04:33;;;;;;;1.60;1.50;;;20.90;54.80;;;;;;5163975;27;20030;-44
2021/12/10 03:06:59;;;;;;;;;;;20.90;54.80;;;;;;5163939;27;20065;-44
2021/12/10 03:09:25;;;;;;;1.40;1.30;;;20.90;54.70;;;;;;5161009;27;19932;-45
2021/12/10 03:11:53;;;;;;;2.30;1.45;;;20.90;54.70;;;;;;5153002;27;20019;-45
2021/12/10 03:14:23;;;;;;;1.77;1.50;;;20.80;54.70;;;;;;5163642;27;20027;-44
2021/12/10 03:16:51;;;;;;;1.50;1.40;;;20.80;54.80;;;;;;5160545;27;20023;-44
2021/12/10 03:19:17;;;;;;;1.75;1.65;;;20.80;54.80;;;;;;5160732;27;20094;-46
2021/12/10 03:21:44;;;;;;;2.10;1.77;;;20.90;54.80;;;;;;5143671;27;20027;-45
2021/12/10 03:24:14;;;;;;;;;;;20.90;54.80;;;;;;5164572;27;20055;-44
2021/12/10 03:26:40;;;;;;;1.70;1.60;;;20.90;54.70;;;;;;5163824;27;19911;-45
2021/12/10 03:29:07;;;;;;;2.50;1.70;;;20.90;54.70;;;;;;5163586;27;20058;-45
2021/12/10 03:31:34;;;;;;;2.40;1.57;;;20.80;54.70;;;;;;5146558;27;20072;-44
2021/12/10 03:34:00;;;;;;;1.63;1.45;;;20.80;54.80;;;;;;5168109;27;20121;-45
2021/12/10 03:36:26;;;;;;;2.00;1.65;;;20.70;54.70;;;;;;5168478;27;20046;-44
2021/12/10 03:38:53;;;;;;;1.55;1.45;;;20.80;54.80;;;;;;5167893;27;20041;-44
2021/12/10 03:41:19;;;;;;;1.75;1.65;;;20.90;54.80;;;;;;5168215;27;20042;-45
2021/12/10 03:43:46;;;;;;;1.88;1.60;;;20.90;54.80;;;;;;5168263;27;20038;-45
2021/12/10 03:46:12;;;;;;;1.70;1.52;;;20.90;54.80;;;;;;5168246;27;20087;-46
2021/12/10 03:48:41;;;;;;;1.90;1.80;;;20.90;54.70;;;;;;5167770;27;20035;-46
2021/12/10 03:51:08;;;;;;;1.75;1.65;;;20.80;54.70;;;;;;5155588;27;20036;-45
2021/12/10 03:53:34;;;;;;;2.00;1.80;;;20.80;54.70;;;;;;5168053;27;20035;-43
2021/12/10 03:56:04;;;;;;;2.28;1.50;;;20.80;54.80;;;;;;5167693;27;20022;-44
2021/12/10 03:58:30;;;;;;;1.80;1.70;;;20.80;54.80;;;;;;5168009;27;20018;-46
2021/12/10 04:00:56;;;;;;;1.98;1.73;;;20.90;54.90;;;;;;5167167;27;20106;-43
2021/12/10 04:03:23;;;;;;;1.58;1.48;;;20.90;54.90;;;;;;5167877;27;20031;-45
2021/12/10 04:05:49;;;;;;;2.15;1.95;;;20.90;54.80;;;;;;5168028;27;20043;-43
2021/12/10 04:08:16;;;;;;;2.00;1.75;;;20.90;54.80;;;;;;5167958;27;20046;-44
2021/12/10 04:10:42;;;;;;;2.30;1.70;;;20.80;54.80;;;;;;5167420;27;20025;-47
2021/12/10 04:13:09;;;;;;;1.90;1.70;;;20.80;54.80;;;;;;5167690;27;20039;-45
2021/12/10 04:15:36;;;;;;;1.90;1.80;;;20.80;54.90;;;;;;5171541;27;20852;-46
2021/12/10 04:18:03;;;;;;;2.13;1.92;;;20.90;55.00;;;;;;5167611;27;20058;-44
2021/12/10 04:20:29;;;;;;;2.05;1.85;;;20.90;55.00;;;;;;5155533;27;20108;-45
2021/12/10 04:22:57;;;;;;;1.90;1.80;;;20.90;55.00;;;;;;5167101;27;20031;-44
2021/12/10 04:25:26;;;;;;;1.90;1.70;;;20.90;54.90;;;;;;5167270;27;20092;-44
2021/12/10 04:27:56;;;;;;;1.95;1.80;;;20.90;55.50;;;;;;5167170;27;20099;-44
2021/12/10 04:30:23;;;;;;;2.30;1.90;;;20.80;54.90;;;;;;5166718;27;20074;-43
2021/12/10 04:32:50;;;;;;;2.25;1.95;;;20.80;55.00;;;;;;5167148;27;20046;-44
2021/12/10 04:35:18;;;;;;;2.30;2.10;;;20.80;55.10;;;;;;5167466;27;20034;-44
2021/12/10 04:37:45;;;;;;;1.70;1.60;;;20.90;55.10;;;;;;5167332;27;20031;-45
2021/12/10 04:40:12;;;;;;;2.38;1.75;;;20.90;55.10;;;;;;5153174;27;20037;-45
2021/12/10 04:42:38;;;;;;;1.88;1.77;;;20.90;55.10;;;;;;5167099;27;20050;-44
2021/12/10 04:45:05;;;;;;;2.10;1.90;;;20.90;55.00;;;;;;5157746;27;20024;-44
2021/12/10 04:47:32;;;;;;;2.30;2.10;;;20.80;55.00;;;;;;5164847;27;20029;-46
2021/12/10 04:49:58;;;;;;;1.87;1.70;;;20.80;55.10;;;;;;5160239;27;20037;-44
2021/12/10 04:52:24;;;;;;;1.63;1.52;;;20.80;55.10;;;;;;5164414;27;20430;-47
2021/12/10 04:54:50;;;;;;;2.10;1.90;;;20.80;55.20;;;;;;5166852;27;20036;-46
2021/12/10 04:57:16;;;;;;;2.28;2.05;;;20.90;55.20;;;;;;5166822;27;20026;-44
2021/12/10 04:59:42;;;;;;;2.00;1.80;;;20.90;55.20;;;;;;5166125;27;20026;-47
2021/12/10 05:02:10;;;;;;;2.92;1.83;;;20.90;55.20;;;;;;5165162;27;20026;-43
2021/12/10 05:04:36;;;;;;;2.30;2.10;;;20.90;55.10;;;;;;5166387;27;20019;-45
2021/12/10 05:07:04;;;;;;;2.50;2.10;;;20.80;55.10;;;;;;5166691;27;20546;-45
2021/12/10 05:09:31;;;;;;;2.30;2.10;;;20.80;55.20;;;;;;5166447;27;20031;-44
2021/12/10 05:12:01;;;;;;;2.30;2.05;;;20.80;55.20;;;;;;5165758;27;20034;-46
2021/12/10 05:14:27;;;;;;;1.95;1.85;;;20.80;55.20;;;;;;5166332;27;20049;-45
2021/12/10 05:16:54;;;;;;;2.30;2.00;;;20.90;55.30;;;;;;5160063;27;20023;-44
2021/12/10 05:19:23;;;;;;;2.08;1.88;;;20.90;55.20;;;;;;5145644;27;20035;-45
2021/12/10 05:21:49;;;;;;;2.15;1.95;;;20.90;55.20;;;;;;5154492;27;20019;-44
2021/12/10 05:24:15;;;;;;;2.17;1.98;;;20.90;55.20;;;;;;5166456;27;20023;-44
2021/12/10 05:26:41;;;;;;;2.13;1.92;;;20.80;55.20;;;;;;5166303;27;20538;-45
2021/12/10 05:29:08;;;;;;;2.20;2.00;;;20.70;55.20;;;;;;5166051;27;20052;-45
2021/12/10 05:31:35;;;;;;;2.30;2.10;;;20.70;55.20;;;;;;5161623;27;20041;-44
2021/12/10 05:34:02;;;;;;;2.40;2.20;;;20.80;55.30;;;;;;5166014;27;20129;-44
2021/12/10 05:36:28;;;;;;;2.80;2.35;;;20.80;55.20;;;;;;5165674;27;20037;-44
2021/12/10 05:38:54;;;;;;;2.80;2.17;;;20.90;55.30;;;;;;5165644;27;20054;-46
2021/12/10 05:41:20;;;;;;;2.22;2.03;;;20.90;55.20;;;;;;5165172;27;20023;-46
2021/12/10 05:43:46;;;;;;;2.10;1.52;;;20.90;55.20;;;;;;5165545;27;20022;-45
2021/12/10 05:46:13;;;;;;;3.22;2.08;;;20.80;55.10;;;;;;5165878;27;20023;-47
2021/12/10 05:48:40;;;;;;;3.28;2.28;;;20.80;55.20;;;;;;5165288;27;20026;-46
2021/12/10 05:51:06;;;;;;;2.90;2.60;;;20.70;55.20;;;;;;5147831;27;20605;-48
2021/12/10 05:53:32;;;;;;;2.47;2.13;;;20.80;55.30;;;;;;5162714;27;20043;-45
2021/12/10 05:55:58;;;;;;;2.30;2.08;;;20.90;55.40;;;;;;5164837;27;20023;-44
2021/12/10 05:58:25;;;;;;;2.53;2.30;;;20.90;55.40;;;;;;5165562;27;20637;-45
2021/12/10 06:00:59;;;;;;;3.53;2.78;;;20.90;55.30;;;;;;5164754;27;20047;-46
2021/12/10 06:03:25;;;;;;;2.80;2.15;;;20.90;55.30;;;;;;5165220;27;20030;-44
2021/12/10 06:05:52;;;;;;;2.63;2.42;;;20.90;55.30;;;;;;5165260;27;20030;-44
2021/12/10 06:08:18;;;;;;;2.47;2.27;;;20.80;55.30;;;;;;5167784;27;20032;-43
2021/12/10 06:10:45;;;;;;;2.80;2.30;;;20.70;55.30;;;;;;5165254;27;20460;-45
2021/12/10 06:13:11;;;;;;;2.38;2.17;;;20.80;55.40;;;;;;5164792;27;20071;-45
2021/12/10 06:15:37;;;;;;;2.87;2.57;;;20.80;55.40;;;;;;5166962;27;20031;-46
2021/12/10 06:18:03;;;;;;;2.42;2.22;;;20.90;55.40;;;;;;5166394;27;20664;-46
2021/12/10 06:20:31;;;;;;;2.80;1.83;;;20.90;55.40;;;;;;5153630;27;20027;-49
2021/12/10 06:22:59;;;;;;;2.60;2.28;;;20.90;55.30;;;;;;5143762;27;20086;-43
2021/12/10 06:25:26;;;;;;;3.20;2.35;;;20.80;55.30;;;;;;5160288;27;20027;-43
2021/12/10 06:27:53;;;;;;;2.58;2.33;;;20.80;55.40;;;;;;5164976;27;20497;-44
2021/12/10 06:30:22;;;;;;;2.47;1.98;;;20.70;55.40;;;;;;5164505;27;20832;-44
2021/12/10 06:32:50;;;;;;;2.65;2.38;;;20.80;55.50;;;;;;5161266;27;20035;-44
2021/12/10 06:35:16;;;;;;;2.45;2.20;;;20.80;55.50;;;;;;5144593;27;20038;-43
2021/12/10 06:37:43;;;;;;;2.80;2.20;;;20.90;55.50;;;;;;5143846;27;20023;-44
2021/12/10 06:40:11;;;;;;;2.13;1.92;;;20.90;55.50;;;;;;5151019;27;20019;-44
2021/12/10 06:42:37;;;;;;;2.58;2.10;;;20.90;55.50;;;;;;5165266;27;20041;-43
2021/12/10 06:45:08;;;;;;;3.17;1.98;;;20.80;55.50;;;;;;5164138;27;20038;-45
2021/12/10 06:47:34;;;;;;;3.75;2.53;;;20.70;55.50;;;;;;5151083;27;20019;-43
2021/12/10 06:50:00;;;;;;;3.10;2.28;;;20.80;55.60;;;;;;5156062;27;20031;-45
2021/12/10 06:52:26;;;;;;;2.58;2.03;;;20.80;55.60;;;;;;5160944;27;20052;-43
2021/12/10 06:54:53;;;;;;;2.85;2.30;;;20.90;55.70;;;;;;5163116;27;20030;-43
2021/12/10 06:57:19;;;;;;;2.38;2.17;;;20.90;55.60;;;;;;5157073;27;20103;-44
2021/12/10 06:59:45;;;;;;;2.55;1.77;;;20.90;55.60;;;;;;5143473;27;20027;-45
2021/12/10 07:02:12;;;;;;;2.10;1.90;;;20.80;55.50;;;;;;5040697;28;20061;-43
2021/12/10 07:04:41;;;;;;;2.47;1.98;;;20.80;55.60;;;;;;5051679;28;20765;-43
2021/12/10 07:07:10;;;;;;;2.42;2.22;;;20.80;55.60;;;;;;5053762;27;20037;-45
2021/12/10 07:09:36;;;;;;;2.45;2.22;;;20.90;55.70;;;;;;5049569;28;20044;-45
2021/12/10 07:12:03;;;;;;;2.90;2.35;;;20.90;55.60;;;;;;5054722;28;20059;-45
2021/12/10 07:14:29;;;;;;;3.30;2.42;;;20.90;55.60;;;;;;5053939;28;20036;-43
2021/12/10 07:16:55;;;;;;;2.30;2.10;;;20.90;55.50;;;;;;5053879;27;20045;-44
2021/12/10 07:19:21;;;;;;;2.13;1.92;;;20.80;55.50;;;;;;5051063;28;20059;-43
2021/12/10 07:21:47;;;;;;;2.60;2.00;;;20.80;55.50;;;;;;5039498;28;20026;-43
2021/12/10 07:24:16;;;;;;;2.08;1.80;;;20.80;55.60;;;;;;5056830;28;20486;-44
2021/12/10 07:26:43;;;;;;;2.10;1.90;;;20.90;55.70;;;;;;5050849;28;20064;-45
2021/12/10 07:29:09;;;;;;;1.77;1.65;;;20.90;55.60;;;;;;5058252;28;20041;-43
2021/12/10 07:31:36;;;;;;;1.90;1.70;;;20.90;55.60;;;;;;5056963;27;20787;-43
2021/12/10 07:34:02;;;;;;;2.42;2.10;;;20.90;55.60;;;;;;5053008;28;20044;-44
2021/12/10 07:36:28;;;;;;;2.10;1.70;;;20.90;55.70;;;;;;5040669;28;20112;-43
2021/12/10 07:38:56;;;;;;;2.00;1.80;;;20.80;55.60;;;;;;5047875;28;20290;-45
2021/12/10 07:41:22;;;;;;;2.30;1.58;;;20.80;55.60;;;;;;5054924;28;20032;-45
2021/12/10 07:43:48;;;;;;;1.70;1.60;;;20.90;55.70;;;;;;5058563;27;20021;-45
2021/12/10 07:46:15;;;;;;;2.10;1.75;;;20.90;55.70;;;;;;5055393;28;20278;-43
2021/12/10 07:48:42;;;;;;;1.90;1.70;;;20.90;55.70;;;;;;5058126;28;20029;-47
2021/12/10 07:51:28;;;;;;;1.83;1.60;;;20.90;55.70;;;;;;5050765;28;20048;-44
2021/12/10 07:53:57;;;;;;;1.70;1.60;;;20.90;55.70;;;;;;5053345;27;20062;-45
2021/12/10 07:56:24;;;;;;;2.35;1.77;;;20.90;55.70;;;;;;5056489;28;20036;-43
2021/12/10 07:58:50;;;;;;;1.52;1.42;;;20.80;55.60;;;;;;5052656;28;20029;-45
2021/12/10 08:01:28;;;;;;;1.70;1.60;;;20.90;55.70;;;;;;5138164;27;20102;-43
2021/12/10 08:03:55;;;;;;;2.00;1.60;;;20.90;55.70;;;;;;5163046;27;20063;-44
2021/12/10 08:06:21;;;;;;;1.50;1.40;;;20.90;56.20;;;;;;5163293;27;20022;-43
2021/12/10 08:08:48;;;;;;;1.40;1.30;;;21.00;55.70;;;;;;5163324;27;20474;-43
2021/12/10 08:11:15;;;;;;;1.40;1.30;;;20.90;55.60;;;;;;5163635;27;20030;-45
2021/12/10 08:13:41;;;;;;;1.48;1.30;;;20.90;55.70;;;;;;5166417;27;20870;-46
2021/12/10 08:16:07;;;;;;;1.35;1.25;;;20.80;55.60;;;;;;5168331;27;20030;-45
2021/12/10 08:18:33;;;;;;;1.45;1.35;;;20.80;55.60;;;;;;5162611;27;20027;-44
2021/12/10 08:20:59;;;;;;;1.27;1.10;;;20.90;55.70;;;;;;5166242;27;20127;-44
2021/12/10 08:23:25;;;;;;;1.30;1.20;;;20.90;55.70;;;;;;5167010;27;20041;-45
2021/12/10 08:25:52;;;;;;;1.80;1.33;;;20.90;55.70;;;;;;5166946;27;20048;-46
2021/12/10 08:28:22;;;;;;;1.20;1.00;;;20.90;55.70;;;;;;5166650;27;20583;-44
2021/12/10 08:30:48;;;;;;;1.25;1.15;;;20.90;55.70;;;;;;5161121;27;20022;-45
2021/12/10 08:33:15;;;;;;;1.47;1.37;;;20.80;55.60;;;;;;5166452;27;20464;-44
2021/12/10 08:35:43;;;;;;;1.30;1.20;;;20.80;55.80;;;;;;5169885;27;20278;-43
2021/12/10 08:38:10;;;;;;;1.20;1.10;;;20.80;55.70;;;;;;5167007;27;20038;-44
2021/12/10 08:40:41;;;;;;;1.20;1.10;;;20.90;55.80;;;;;;5166881;27;20051;-43
2021/12/10 08:43:07;;;;;;;0.90;0.90;;;20.90;55.80;;;;;;5166742;27;20034;-44
2021/12/10 08:45:34;;;;;;;0.82;0.82;;;20.90;55.70;;;;;;5166418;27;20015;-44
2021/12/10 08:48:01;;;;;;;1.38;0.80;;;20.90;55.70;;;;;;5166943;27;20064;-45
2021/12/10 08:50:27;;;;;;;1.00;0.90;;;20.90;55.70;;;;;;5155365;27;20059;-44
2021/12/10 08:53:00;;;;;;;1.35;1.20;;;20.80;55.80;;;;;;5154346;27;20041;-44
2021/12/10 08:55:26;;;;;;;1.27;1.17;;;20.80;55.70;;;;;;5166335;27;20050;-43
2021/12/10 08:57:53;;;;;;;1.00;0.90;;;20.80;55.70;;;;;;5165977;27;20119;-43
2021/12/10 09:00:20;;;;;;;0.90;0.90;;;20.90;55.80;;;;;;5166299;27;20060;-43
2021/12/10 09:02:47;;;;;;;;;;;20.90;55.70;;;;;;5148425;27;20103;-44
2021/12/10 09:05:13;;;;;;;1.00;0.80;;;20.90;56.30;;;;;;5166107;27;19903;-44
2021/12/10 09:07:42;;;;;;;0.95;0.85;;;20.90;55.70;;;;;;5166379;27;20030;-43
2021/12/10 09:10:08;;;;;;;1.13;1.02;;;20.90;55.70;;;;;;5161885;27;20038;-44
2021/12/10 09:12:35;;;;;;;0.90;0.77;;;20.80;55.70;;;;;;5166240;27;20038;-43
2021/12/10 09:15:04;;;;;;;0.77;0.70;;;20.80;55.70;;;;;;5166343;27;20031;-45
2021/12/10 09:17:31;;;;;;;0.90;0.80;;;20.90;55.80;;;;;;5166106;27;20027;-43
2021/12/10 09:19:59;;;;;;;0.73;0.73;;;20.90;55.80;;;;;;5158781;27;20027;-44
2021/12/10 09:22:27;;;;;;;1.02;0.93;;;20.90;55.70;;;;;;5150012;27;20034;-43
2021/12/10 09:24:54;;;;;;;1.05;0.95;;;20.90;55.70;;;;;;5166350;27;20026;-43
2021/12/10 09:27:21;;;;;;;1.08;0.98;;;20.90;55.70;;;;;;5165253;27;20030;-43
2021/12/10 09:29:47;;;;;;;0.70;0.60;;;20.80;55.70;;;;;;5153989;27;20031;-43
2021/12/10 09:32:16;;;;;;;0.90;0.70;;;20.80;55.70;;;;;;5148186;27;20066;-43
2021/12/10 09:34:42;;;;;;;0.65;0.65;;;20.90;55.80;;;;;;5166018;27;20095;-44
2021/12/10 09:37:09;;;;;;;0.70;0.70;;;20.90;55.80;;;;;;5165243;27;20059;-45
2021/12/10 09:39:35;;;;;;;0.70;0.70;;;21.00;55.80;;;;;;5166020;27;20110;-43
2021/12/10 09:42:02;;;;;;;0.70;0.70;;;20.90;55.70;;;;;;5165806;27;20752;-43
2021/12/10 09:44:28;;;;;;;0.83;0.70;;;20.90;55.70;;;;;;5165818;27;20272;-44
2021/12/10 09:46:54;;;;;;;0.75;0.70;;;20.90;55.70;;;;;;5165374;27;20027;-45
2021/12/10 09:49:23;;;;;;;0.60;0.60;;;20.80;55.70;;;;;;5155259;27;20037;-43
2021/12/10 09:51:52;;;;;;;0.85;0.82;;;20.90;55.80;;;;;;5165437;27;20533;-44
2021/12/10 09:54:20;;;;;;;0.68;0.60;;;20.90;55.80;;;;;;5144689;27;20031;-47
2021/12/10 09:56:59;;;;;;;0.80;0.70;;;21.00;55.80;;;;;;5151075;27;20027;-44
2021/12/10 09:59:25;;;;;;;0.70;0.70;;;21.00;55.80;;;;;;5161278;27;20489;-44
2021/12/10 10:01:52;;;;;;;0.75;0.70;;;20.90;55.70;;;;;;5164980;27;20055;-44
2021/12/10 10:04:18;;;;;;;;;;;20.90;55.80;;;;;;5165626;27;20421;-45
2021/12/10 10:06:55;;;;;;;0.90;0.80;;;20.90;55.80;;;;;;5165046;27;19917;-44
2021/12/10 10:09:22;;;;;;;0.70;0.60;;;20.80;55.80;;;;;;5148150;27;20026;-44
2021/12/10 10:11:53;;;;;;;0.50;0.50;;;20.90;55.80;;;;;;5165177;27;20035;-43
2021/12/10 10:14:19;;;;;;;0.80;0.80;;;20.90;55.80;;;;;;5165491;27;20062;-44
2021/12/10 10:16:45;;;;;;;0.82;0.73;;;21.00;55.80;;;;;;5164629;27;20027;-44
2021/12/10 10:19:12;;;;;;;0.65;0.60;;;20.90;55.70;;;;;;5164125;27;20022;-46
2021/12/10 10:21:42;;;;;;;0.80;0.70;;;20.90;55.80;;;;;;5144476;27;20034;-44
2021/12/10 10:24:09;;;;;;;0.50;0.50;;;20.90;55.80;;;;;;5147304;27;20031;-43
2021/12/10 10:26:38;;;;;;;0.80;0.80;;;20.90;55.80;;;;;;5178287;27;20018;-45
2021/12/10 10:29:10;;;;;;;0.63;0.60;;;20.90;55.80;;;;;;5164929;27;20111;-44
2021/12/10 10:31:38;;;;;;;0.65;0.60;;;21.00;56.00;;;;;;5174769;27;20022;-44
2021/12/10 10:34:04;;;;;;;0.75;0.70;;;21.00;55.80;;;;;;5166636;27;20058;-45
2021/12/10 10:36:32;;;;;;;0.70;0.68;;;21.00;55.80;;;;;;5145847;27;20023;-45
2021/12/10 10:39:04;;;;;;;0.60;0.60;;;20.90;55.80;;;;;;5165026;27;20510;-44
2021/12/10 10:41:33;;;;;;;0.75;0.60;;;20.90;55.90;;;;;;5164783;27;20033;-43
2021/12/10 10:44:00;;;;;;;0.60;0.60;;;20.80;55.80;;;;;;5164765;27;20060;-45
2021/12/10 10:46:27;;;;;;;0.90;0.80;;;20.90;55.90;;;;;;5164141;27;20027;-44
2021/12/10 10:48:53;;;;;;;0.60;0.60;;;20.90;55.90;;;;;;5164628;27;20069;-44
2021/12/10 10:51:30;;;;;;;0.70;0.70;;;21.00;56.00;;;;;;5145587;27;20610;-44
2021/12/10 10:53:58;;;;;;;0.70;0.70;;;21.00;56.00;;;;;;5143627;27;20035;-46
2021/12/10 10:56:33;;;;;;;0.60;0.60;;;20.90;55.90;;;;;;5147643;27;20270;-44
2021/12/10 10:59:03;;;;;;;1.08;0.55;;;20.90;55.90;;;;;;5164017;27;20122;-44
2021/12/10 11:01:44;;;;;;;0.80;0.70;;;20.80;55.90;;;;;;5162055;27;20046;-44
2021/12/10 11:04:17;;;;;;;0.70;0.70;;;20.80;56.00;;;;;;5163242;27;20049;-44
2021/12/10 11:06:46;;;;;;;0.90;0.70;;;20.90;56.00;;;;;;5163697;27;20029;-45
2021/12/10 11:09:23;;;;;;;0.70;0.60;;;21.00;56.10;;;;;;5164189;27;20030;-46
2021/12/10 11:11:58;;;;;;;0.90;0.70;;;21.00;56.00;;;;;;5143495;27;20034;-44
2021/12/10 11:14:27;;;;;;;0.60;0.60;;;20.90;55.90;;;;;;5143704;27;20812;-45
2021/12/10 11:17:01;;;;;;;0.52;0.50;;;20.90;56.00;;;;;;5146696;27;20445;-47
2021/12/10 11:19:28;;;;;;;0.52;0.52;;;20.90;56.00;;;;;;5160756;27;20031;-44
2021/12/10 11:22:01;;;;;;;;;;;20.80;56.00;;;;;;5156565;27;20026;-46
2021/12/10 11:24:45;;;;;;;0.63;0.63;;;20.90;56.00;;;;;;5164314;27;19945;-46
2021/12/10 11:27:17;;;;;;;0.85;0.70;;;20.90;56.00;;;;;;5163727;27;20079;-45
2021/12/10 11:29:50;;;;;;;0.82;0.60;;;21.00;56.10;;;;;;5164163;27;20075;-47
2021/12/10 11:32:25;;;;;;;0.47;0.47;;;21.00;56.10;;;;;;5164241;27;20035;-44
2021/12/10 11:34:55;;;;;;;0.63;0.60;;;20.90;56.00;;;;;;5163257;27;20562;-45
2021/12/10 11:37:50;;;;;;;0.43;0.40;;;20.90;56.10;;;;;;5144764;27;20023;-44
2021/12/10 11:40:51;;;;;;;0.50;0.45;;;20.80;56.10;;;;;;5164014;27;20056;-44
2021/12/10 11:43:33;;;;;;;0.75;0.50;;;20.90;56.20;;;;;;5163568;27;20052;-43
2021/12/10 11:46:29;;;;;;;0.60;0.50;;;20.90;56.10;;;;;;5164002;27;20026;-43
2021/12/10 11:49:03;;;;;;;0.68;0.60;;;21.00;56.20;;;;;;5162836;27;20026;-43
2021/12/10 11:51:40;;;;;;;0.40;0.40;;;21.00;56.20;;;;;;5145600;27;20634;-45
2021/12/10 11:54:21;;;;;;;0.68;0.60;;;20.90;56.10;;;;;;5166812;27;20039;-49
2021/12/10 11:57:13;;;;;;;0.50;0.50;;;20.90;56.20;;;;;;5162548;27;20035;-44
2021/12/10 12:00:08;;;;;;;0.40;0.40;;;20.80;56.10;;;;;;5154659;27;20065;-47
2021/12/10 12:02:37;;;;;;;0.45;0.40;;;20.90;56.10;;;;;;5163435;27;20027;-49
2021/12/10 12:05:12;;;;;;;0.50;0.40;;;21.00;56.80;;;;;;5167841;27;20023;-47
2021/12/10 12:07:47;;;;;;;0.40;0.40;;;21.00;56.20;;;;;;5165304;27;20022;-43
2021/12/10 12:10:23;;;;;;;1.05;0.40;;;20.90;56.10;;;;;;5148674;27;20022;-44
2021/12/10 12:12:53;;;;;;;0.38;0.38;;;20.90;56.10;;;;;;5166496;27;20037;-43
2021/12/10 12:15:28;;;;;;;0.40;0.40;;;20.90;56.20;;;;;;5167321;27;20026;-44
2021/12/10 12:18:01;;;;;;;0.50;0.50;;;20.80;56.20;;;;;;5166391;27;20026;-43
2021/12/10 12:20:47;;;;;;;0.30;0.30;;;20.90;56.20;;;;;;5168238;27;20038;-45
2021/12/10 12:26:10;;;;;;;0.55;0.47;;;21.00;56.30;;;;;;5158865;27;20031;-44
2021/12/10 12:28:41;;;;;;;1.17;0.38;;;21.00;56.30;;;;;;5158700;27;20023;-45
2021/12/10 12:31:16;;;;;;;0.40;0.40;;;20.90;56.20;;;;;;5162363;27;20039;-44
2021/12/10 12:33:57;;;;;;;0.50;0.30;;;20.90;56.30;;;;;;5169314;27;20030;-44
2021/12/10 12:36:31;;;;;;;0.30;0.30;;;20.90;56.30;;;;;;5171748;27;20027;-44
2021/12/10 12:38:57;;;;;;;0.50;0.30;;;20.90;56.20;;;;;;5161204;27;20098;-45
2021/12/10 12:41:25;;;;;;;0.30;0.30;;;20.90;56.20;;;;;;5167234;27;20019;-43
2021/12/10 12:44:13;;;;;;;0.63;0.38;;;21.00;56.20;;;;;;5166622;27;20162;-43
2021/12/10 12:47:03;;;;;;;0.63;0.40;;;21.00;56.20;;;;;;5164540;27;20031;-43
2021/12/10 12:50:01;;;;;;;0.50;0.47;;;20.90;56.20;;;;;;5151070;27;20023;-43
2021/12/10 12:52:36;;;;;;;0.65;0.40;;;20.90;56.20;;;;;;5128080;27;20046;-43
2021/12/10 12:55:17;;;;;;;0.30;0.30;;;20.80;56.20;;;;;;5150859;27;20029;-43
2021/12/10 12:57:51;;;;;;;0.35;0.30;;;20.90;56.30;;;;;;5160754;27;20023;-43
2021/12/10 13:00:47;;;;;;;0.47;0.40;;;21.00;56.30;;;;;;5165870;27;20058;-46
2021/12/10 13:03:24;;;;;;;0.35;0.20;;;21.00;56.30;;;;;;5143765;27;20037;-44
2021/12/10 13:06:11;;;;;;;0.73;0.35;;;21.00;56.20;;;;;;5165161;27;20055;-44
2021/12/10 13:08:39;;;;;;;0.60;0.40;;;20.90;56.20;;;;;;5151045;27;20346;-43
2021/12/10 13:11:18;;;;;;;1.50;0.73;;;20.90;56.20;;;;;;5166546;27;20030;-43